sensor_id;sensor_type;location;lat;lon;timestamp;P1;durP1;ratioP1;P2;durP2;ratioP2
42978;SDS011;28616;44.746;19.678;2023-06-22T00:22:42;37.80;;;24.75;;
42978;SDS011;28616;44.746;19.678;2023-06-22T00:25:08;36.95;;;26.65;;
42978;SDS011;28616;44.746;19.678;2023-06-22T00:27:35;37.05;;;27.60;;
42978;SDS011;28616;44.746;19.678;2023-06-22T00:30:01;39.65;;;27.75;;
42978;SDS011;28616;44.746;19.678;2023-06-22T00:32:27;37.25;;;27.63;;
42978;SDS011;28616;44.746;19.678;2023-06-22T00:34:54;39.15;;;28.67;;
42978;SDS011;28616;44.746;19.678;2023-06-22T00:37:20;38.58;;;28.02;;
42978;SDS011;28616;44.746;19.678;2023-06-22T00:39:50;41.30;;;28.50;;
42978;SDS011;28616;44.746;19.678;2023-06-22T00:42:16;39.15;;;28.48;;
42978;SDS011;28616;44.746;19.678;2023-06-22T00:44:43;37.08;;;27.90;;
42978;SDS011;28616;44.746;19.678;2023-06-22T00:47:10;39.45;;;27.17;;
42978;SDS011;28616;44.746;19.678;2023-06-22T00:49:38;36.20;;;27.27;;
42978;SDS011;28616;44.746;19.678;2023-06-22T00:52:05;40.50;;;29.17;;
42978;SDS011;28616;44.746;19.678;2023-06-22T00:54:42;41.38;;;28.20;;
42978;SDS011;28616;44.746;19.678;2023-06-22T00:57:13;41.72;;;26.35;;
42978;SDS011;28616;44.746;19.678;2023-06-22T00:59:44;39.97;;;26.55;;
42978;SDS011;28616;44.746;19.678;2023-06-22T01:02:11;36.90;;;27.45;;
42978;SDS011;28616;44.746;19.678;2023-06-22T01:04:37;43.17;;;28.35;;
42978;SDS011;28616;44.746;19.678;2023-06-22T01:10:25;36.85;;;27.35;;
42978;SDS011;28616;44.746;19.678;2023-06-22T01:12:25;39.83;;;27.27;;
42978;SDS011;28616;44.746;19.678;2023-06-22T01:14:55;36.35;;;28.27;;
42978;SDS011;28616;44.746;19.678;2023-06-22T01:17:23;36.25;;;27.85;;
42978;SDS011;28616;44.746;19.678;2023-06-22T01:19:51;44.83;;;28.65;;
42978;SDS011;28616;44.746;19.678;2023-06-22T01:22:26;41.70;;;29.27;;
42978;SDS011;28616;44.746;19.678;2023-06-22T01:27:28;39.08;;;29.80;;
42978;SDS011;28616;44.746;19.678;2023-06-22T01:29:58;42.10;;;30.63;;
42978;SDS011;28616;44.746;19.678;2023-06-22T01:32:30;45.15;;;30.42;;
42978;SDS011;28616;44.746;19.678;2023-06-22T01:34:58;46.60;;;30.77;;
42978;SDS011;28616;44.746;19.678;2023-06-22T01:37:26;41.53;;;30.25;;
42978;SDS011;28616;44.746;19.678;2023-06-22T01:39:53;44.70;;;30.27;;
42978;SDS011;28616;44.746;19.678;2023-06-22T01:42:21;37.10;;;29.73;;
42978;SDS011;28616;44.746;19.678;2023-06-22T01:44:47;39.35;;;30.15;;
42978;SDS011;28616;44.746;19.678;2023-06-22T01:47:13;44.92;;;30.65;;
42978;SDS011;28616;44.746;19.678;2023-06-22T01:49:40;44.88;;;30.83;;
42978;SDS011;28616;44.746;19.678;2023-06-22T01:52:06;43.17;;;32.00;;
42978;SDS011;28616;44.746;19.678;2023-06-22T01:54:33;39.30;;;30.13;;
42978;SDS011;28616;44.746;19.678;2023-06-22T01:56:59;44.65;;;31.40;;
42978;SDS011;28616;44.746;19.678;2023-06-22T01:59:30;44.08;;;31.13;;
42978;SDS011;28616;44.746;19.678;2023-06-22T02:02:02;46.10;;;31.70;;
42978;SDS011;28616;44.746;19.678;2023-06-22T02:04:33;49.08;;;32.15;;
42978;SDS011;28616;44.746;19.678;2023-06-22T02:07:00;45.22;;;33.42;;
42978;SDS011;28616;44.746;19.678;2023-06-22T02:09:29;44.20;;;31.42;;
42978;SDS011;28616;44.746;19.678;2023-06-22T02:11:57;48.13;;;32.72;;
42978;SDS011;28616;44.746;19.678;2023-06-22T02:14:24;40.92;;;30.90;;
42978;SDS011;28616;44.746;19.678;2023-06-22T02:16:51;50.70;;;32.28;;
42978;SDS011;28616;44.746;19.678;2023-06-22T02:19:17;50.22;;;33.10;;
42978;SDS011;28616;44.746;19.678;2023-06-22T02:21:48;45.80;;;32.85;;
42978;SDS011;28616;44.746;19.678;2023-06-22T02:24:14;43.83;;;31.70;;
42978;SDS011;28616;44.746;19.678;2023-06-22T02:26:40;42.33;;;30.52;;
42978;SDS011;28616;44.746;19.678;2023-06-22T02:29:07;46.65;;;29.33;;
42978;SDS011;28616;44.746;19.678;2023-06-22T02:31:33;42.80;;;30.52;;
42978;SDS011;28616;44.746;19.678;2023-06-22T02:33:59;44.42;;;31.15;;
42978;SDS011;28616;44.746;19.678;2023-06-22T02:36:26;50.08;;;31.88;;
42978;SDS011;28616;44.746;19.678;2023-06-22T02:38:53;41.80;;;30.77;;
42978;SDS011;28616;44.746;19.678;2023-06-22T02:41:21;42.42;;;30.88;;
42978;SDS011;28616;44.746;19.678;2023-06-22T02:43:47;38.55;;;29.10;;
42978;SDS011;28616;44.746;19.678;2023-06-22T02:46:13;36.45;;;28.42;;
42978;SDS011;28616;44.746;19.678;2023-06-22T02:48:40;41.00;;;30.80;;
42978;SDS011;28616;44.746;19.678;2023-06-22T02:51:06;42.08;;;30.17;;
42978;SDS011;28616;44.746;19.678;2023-06-22T02:53:32;41.58;;;31.35;;
42978;SDS011;28616;44.746;19.678;2023-06-22T02:55:58;46.20;;;30.10;;
42978;SDS011;28616;44.746;19.678;2023-06-22T02:58:26;42.83;;;30.58;;
42978;SDS011;28616;44.746;19.678;2023-06-22T03:00:52;49.83;;;31.52;;
42978;SDS011;28616;44.746;19.678;2023-06-22T03:03:19;52.30;;;31.25;;
42978;SDS011;28616;44.746;19.678;2023-06-22T03:05:45;39.80;;;30.90;;
42978;SDS011;28616;44.746;19.678;2023-06-22T03:08:11;39.83;;;29.63;;
42978;SDS011;28616;44.746;19.678;2023-06-22T03:10:37;42.05;;;30.27;;
42978;SDS011;28616;44.746;19.678;2023-06-22T03:13:03;45.88;;;30.20;;
42978;SDS011;28616;44.746;19.678;2023-06-22T03:15:30;43.90;;;31.02;;
42978;SDS011;28616;44.746;19.678;2023-06-22T03:17:57;42.75;;;30.85;;
42978;SDS011;28616;44.746;19.678;2023-06-22T03:20:24;43.00;;;30.67;;
42978;SDS011;28616;44.746;19.678;2023-06-22T03:22:51;41.30;;;29.60;;
42978;SDS011;28616;44.746;19.678;2023-06-22T03:25:18;40.60;;;28.63;;
42978;SDS011;28616;44.746;19.678;2023-06-22T03:27:44;37.25;;;27.85;;
42978;SDS011;28616;44.746;19.678;2023-06-22T03:30:11;38.00;;;28.98;;
42978;SDS011;28616;44.746;19.678;2023-06-22T03:32:37;46.83;;;29.88;;
42978;SDS011;28616;44.746;19.678;2023-06-22T03:35:03;35.70;;;27.25;;
42978;SDS011;28616;44.746;19.678;2023-06-22T03:37:31;37.78;;;26.45;;
42978;SDS011;28616;44.746;19.678;2023-06-22T03:39:57;40.80;;;28.15;;
42978;SDS011;28616;44.746;19.678;2023-06-22T03:42:23;42.53;;;28.60;;
42978;SDS011;28616;44.746;19.678;2023-06-22T03:44:49;38.47;;;28.20;;
42978;SDS011;28616;44.746;19.678;2023-06-22T03:47:16;35.13;;;27.17;;
42978;SDS011;28616;44.746;19.678;2023-06-22T03:49:42;38.60;;;26.92;;
42978;SDS011;28616;44.746;19.678;2023-06-22T03:52:09;36.42;;;25.77;;
42978;SDS011;28616;44.746;19.678;2023-06-22T03:54:36;35.08;;;24.15;;
42978;SDS011;28616;44.746;19.678;2023-06-22T03:57:02;32.72;;;24.13;;
42978;SDS011;28616;44.746;19.678;2023-06-22T03:59:28;36.03;;;25.25;;
42978;SDS011;28616;44.746;19.678;2023-06-22T04:01:54;33.38;;;22.88;;
42978;SDS011;28616;44.746;19.678;2023-06-22T04:04:20;33.30;;;23.65;;
42978;SDS011;28616;44.746;19.678;2023-06-22T04:06:47;28.17;;;21.85;;
42978;SDS011;28616;44.746;19.678;2023-06-22T04:09:13;26.65;;;21.38;;
42978;SDS011;28616;44.746;19.678;2023-06-22T04:11:39;32.88;;;21.23;;
42978;SDS011;28616;44.746;19.678;2023-06-22T04:14:05;30.85;;;21.50;;
42978;SDS011;28616;44.746;19.678;2023-06-22T04:16:31;33.58;;;21.42;;
42978;SDS011;28616;44.746;19.678;2023-06-22T04:18:57;31.90;;;21.30;;
42978;SDS011;28616;44.746;19.678;2023-06-22T04:21:23;32.17;;;22.08;;
42978;SDS011;28616;44.746;19.678;2023-06-22T04:23:50;27.88;;;21.23;;
42978;SDS011;28616;44.746;19.678;2023-06-22T04:26:16;25.98;;;20.58;;
42978;SDS011;28616;44.746;19.678;2023-06-22T04:28:42;33.05;;;21.63;;
42978;SDS011;28616;44.746;19.678;2023-06-22T04:31:08;31.60;;;21.48;;
42978;SDS011;28616;44.746;19.678;2023-06-22T04:33:34;33.53;;;22.25;;
42978;SDS011;28616;44.746;19.678;2023-06-22T04:36:00;36.63;;;22.48;;
42978;SDS011;28616;44.746;19.678;2023-06-22T04:38:27;34.63;;;20.98;;
42978;SDS011;28616;44.746;19.678;2023-06-22T04:40:53;27.88;;;21.30;;
42978;SDS011;28616;44.746;19.678;2023-06-22T04:43:19;27.08;;;20.17;;
42978;SDS011;28616;44.746;19.678;2023-06-22T04:45:45;30.88;;;23.70;;
42978;SDS011;28616;44.746;19.678;2023-06-22T04:50:43;32.85;;;23.65;;
42978;SDS011;28616;44.746;19.678;2023-06-22T04:53:09;35.20;;;22.75;;
42978;SDS011;28616;44.746;19.678;2023-06-22T04:55:37;31.17;;;23.20;;
42978;SDS011;28616;44.746;19.678;2023-06-22T04:58:06;37.47;;;24.88;;
42978;SDS011;28616;44.746;19.678;2023-06-22T05:00:32;33.22;;;23.60;;
42978;SDS011;28616;44.746;19.678;2023-06-22T05:03:01;46.00;;;30.50;;
42978;SDS011;28616;44.746;19.678;2023-06-22T05:05:28;46.58;;;31.20;;
42978;SDS011;28616;44.746;19.678;2023-06-22T05:07:56;43.05;;;31.98;;
42978;SDS011;28616;44.746;19.678;2023-06-22T05:10:25;49.72;;;34.55;;
42978;SDS011;28616;44.746;19.678;2023-06-22T05:12:51;43.97;;;31.42;;
42978;SDS011;28616;44.746;19.678;2023-06-22T05:15:18;37.72;;;29.13;;
42978;SDS011;28616;44.746;19.678;2023-06-22T05:17:51;36.90;;;28.00;;
42978;SDS011;28616;44.746;19.678;2023-06-22T05:20:17;39.72;;;27.25;;
42978;SDS011;28616;44.746;19.678;2023-06-22T05:22:44;36.47;;;26.30;;
42978;SDS011;28616;44.746;19.678;2023-06-22T05:25:10;38.45;;;26.15;;
42978;SDS011;28616;44.746;19.678;2023-06-22T05:27:37;36.42;;;26.05;;
42978;SDS011;28616;44.746;19.678;2023-06-22T05:30:05;41.58;;;26.48;;
42978;SDS011;28616;44.746;19.678;2023-06-22T05:32:32;36.65;;;26.75;;
42978;SDS011;28616;44.746;19.678;2023-06-22T05:34:58;35.30;;;25.67;;
42978;SDS011;28616;44.746;19.678;2023-06-22T05:37:24;34.03;;;25.25;;
42978;SDS011;28616;44.746;19.678;2023-06-22T05:39:51;39.13;;;26.05;;
42978;SDS011;28616;44.746;19.678;2023-06-22T05:42:19;37.15;;;23.67;;
42978;SDS011;28616;44.746;19.678;2023-06-22T05:44:45;37.92;;;25.20;;
42978;SDS011;28616;44.746;19.678;2023-06-22T05:47:12;34.70;;;24.67;;
42978;SDS011;28616;44.746;19.678;2023-06-22T05:49:38;38.40;;;24.33;;
42978;SDS011;28616;44.746;19.678;2023-06-22T05:52:04;32.78;;;23.05;;
42978;SDS011;28616;44.746;19.678;2023-06-22T05:54:31;37.60;;;25.08;;
42978;SDS011;28616;44.746;19.678;2023-06-22T05:56:57;35.97;;;23.67;;
42978;SDS011;28616;44.746;19.678;2023-06-22T05:59:23;34.95;;;24.35;;
42978;SDS011;28616;44.746;19.678;2023-06-22T06:01:49;35.65;;;25.55;;
42978;SDS011;28616;44.746;19.678;2023-06-22T06:04:18;40.20;;;26.05;;
42978;SDS011;28616;44.746;19.678;2023-06-22T06:06:45;39.78;;;25.92;;
42978;SDS011;28616;44.746;19.678;2023-06-22T06:09:14;39.10;;;26.80;;
42978;SDS011;28616;44.746;19.678;2023-06-22T06:11:40;40.88;;;24.58;;
42978;SDS011;28616;44.746;19.678;2023-06-22T06:14:07;33.00;;;24.42;;
42978;SDS011;28616;44.746;19.678;2023-06-22T06:16:33;35.72;;;23.08;;
42978;SDS011;28616;44.746;19.678;2023-06-22T06:18:59;32.33;;;23.27;;
42978;SDS011;28616;44.746;19.678;2023-06-22T06:21:25;39.53;;;23.13;;
42978;SDS011;28616;44.746;19.678;2023-06-22T06:23:52;33.08;;;23.50;;
42978;SDS011;28616;44.746;19.678;2023-06-22T06:26:18;38.35;;;23.20;;
42978;SDS011;28616;44.746;19.678;2023-06-22T06:28:52;34.25;;;22.15;;
42978;SDS011;28616;44.746;19.678;2023-06-22T06:31:19;32.38;;;22.25;;
42978;SDS011;28616;44.746;19.678;2023-06-22T06:33:46;30.90;;;20.17;;
42978;SDS011;28616;44.746;19.678;2023-06-22T06:36:12;29.48;;;20.75;;
42978;SDS011;28616;44.746;19.678;2023-06-22T06:38:38;33.88;;;21.08;;
42978;SDS011;28616;44.746;19.678;2023-06-22T06:41:04;27.08;;;18.60;;
42978;SDS011;28616;44.746;19.678;2023-06-22T06:43:30;23.23;;;17.90;;
42978;SDS011;28616;44.746;19.678;2023-06-22T06:45:56;24.80;;;19.35;;
42978;SDS011;28616;44.746;19.678;2023-06-22T06:48:22;29.10;;;18.40;;
42978;SDS011;28616;44.746;19.678;2023-06-22T06:50:48;32.35;;;20.40;;
42978;SDS011;28616;44.746;19.678;2023-06-22T06:53:15;33.80;;;19.77;;
42978;SDS011;28616;44.746;19.678;2023-06-22T06:55:41;33.03;;;19.45;;
42978;SDS011;28616;44.746;19.678;2023-06-22T06:58:08;28.92;;;19.45;;
42978;SDS011;28616;44.746;19.678;2023-06-22T07:00:37;25.80;;;18.17;;
42978;SDS011;28616;44.746;19.678;2023-06-22T07:03:04;27.38;;;18.88;;
42978;SDS011;28616;44.746;19.678;2023-06-22T07:05:30;27.90;;;18.50;;
42978;SDS011;28616;44.746;19.678;2023-06-22T07:07:56;25.77;;;18.38;;
42978;SDS011;28616;44.746;19.678;2023-06-22T07:10:22;24.50;;;18.52;;
42978;SDS011;28616;44.746;19.678;2023-06-22T07:12:48;25.70;;;18.05;;
42978;SDS011;28616;44.746;19.678;2023-06-22T07:15:14;30.23;;;18.75;;
42978;SDS011;28616;44.746;19.678;2023-06-22T07:17:41;30.50;;;18.40;;
42978;SDS011;28616;44.746;19.678;2023-06-22T07:20:07;31.35;;;18.23;;
42978;SDS011;28616;44.746;19.678;2023-06-22T07:22:43;23.02;;;16.27;;
42978;SDS011;28616;44.746;19.678;2023-06-22T07:25:12;24.98;;;16.60;;
42978;SDS011;28616;44.746;19.678;2023-06-22T07:28:01;21.92;;;15.73;;
42978;SDS011;28616;44.746;19.678;2023-06-22T07:30:27;26.15;;;16.00;;
42978;SDS011;28616;44.746;19.678;2023-06-22T07:32:54;28.33;;;17.58;;
42978;SDS011;28616;44.746;19.678;2023-06-22T07:35:20;21.17;;;15.13;;
42978;SDS011;28616;44.746;19.678;2023-06-22T07:37:46;22.23;;;15.93;;
42978;SDS011;28616;44.746;19.678;2023-06-22T07:40:12;24.80;;;15.77;;
42978;SDS011;28616;44.746;19.678;2023-06-22T07:42:39;27.20;;;16.88;;
42978;SDS011;28616;44.746;19.678;2023-06-22T07:45:06;23.58;;;17.15;;
42978;SDS011;28616;44.746;19.678;2023-06-22T07:47:33;24.63;;;16.23;;
42978;SDS011;28616;44.746;19.678;2023-06-22T07:50:00;22.48;;;15.35;;
42978;SDS011;28616;44.746;19.678;2023-06-22T07:52:28;26.23;;;16.90;;
42978;SDS011;28616;44.746;19.678;2023-06-22T07:54:54;20.13;;;16.08;;
42978;SDS011;28616;44.746;19.678;2023-06-22T07:57:20;24.85;;;16.75;;
42978;SDS011;28616;44.746;19.678;2023-06-22T07:59:46;24.65;;;16.02;;
42978;SDS011;28616;44.746;19.678;2023-06-22T08:02:12;24.30;;;16.95;;
42978;SDS011;28616;44.746;19.678;2023-06-22T08:04:39;26.17;;;17.00;;
42978;SDS011;28616;44.746;19.678;2023-06-22T08:07:06;24.02;;;16.52;;
42978;SDS011;28616;44.746;19.678;2023-06-22T08:09:32;37.38;;;15.93;;
42978;SDS011;28616;44.746;19.678;2023-06-22T08:11:59;22.83;;;16.35;;
42978;SDS011;28616;44.746;19.678;2023-06-22T08:14:25;19.88;;;14.88;;
42978;SDS011;28616;44.746;19.678;2023-06-22T08:16:51;26.13;;;17.90;;
42978;SDS011;28616;44.746;19.678;2023-06-22T08:19:18;21.60;;;15.18;;
42978;SDS011;28616;44.746;19.678;2023-06-22T08:21:44;27.38;;;16.35;;
42978;SDS011;28616;44.746;19.678;2023-06-22T08:24:10;24.05;;;16.63;;
42978;SDS011;28616;44.746;19.678;2023-06-22T08:26:36;26.13;;;16.88;;
42978;SDS011;28616;44.746;19.678;2023-06-22T08:29:03;27.98;;;15.38;;
42978;SDS011;28616;44.746;19.678;2023-06-22T08:31:29;27.67;;;16.23;;
42978;SDS011;28616;44.746;19.678;2023-06-22T08:33:55;21.02;;;15.35;;
42978;SDS011;28616;44.746;19.678;2023-06-22T08:36:22;28.27;;;16.23;;
42978;SDS011;28616;44.746;19.678;2023-06-22T08:38:48;25.10;;;15.95;;
42978;SDS011;28616;44.746;19.678;2023-06-22T08:41:16;23.10;;;15.02;;
42978;SDS011;28616;44.746;19.678;2023-06-22T08:43:42;23.73;;;14.82;;
42978;SDS011;28616;44.746;19.678;2023-06-22T08:46:09;23.63;;;15.57;;
42978;SDS011;28616;44.746;19.678;2023-06-22T08:48:35;19.92;;;14.48;;
42978;SDS011;28616;44.746;19.678;2023-06-22T08:51:02;21.05;;;13.77;;
42978;SDS011;28616;44.746;19.678;2023-06-22T08:53:28;18.02;;;13.20;;
42978;SDS011;28616;44.746;19.678;2023-06-22T08:55:54;18.05;;;13.82;;
42978;SDS011;28616;44.746;19.678;2023-06-22T08:58:20;24.65;;;14.63;;
42978;SDS011;28616;44.746;19.678;2023-06-22T09:00:47;22.15;;;14.75;;
42978;SDS011;28616;44.746;19.678;2023-06-22T09:03:13;20.77;;;14.85;;
42978;SDS011;28616;44.746;19.678;2023-06-22T09:05:40;21.65;;;14.57;;
42978;SDS011;28616;44.746;19.678;2023-06-22T09:08:06;20.38;;;14.63;;
42978;SDS011;28616;44.746;19.678;2023-06-22T09:10:32;24.75;;;15.10;;
42978;SDS011;28616;44.746;19.678;2023-06-22T09:12:58;19.83;;;14.35;;
42978;SDS011;28616;44.746;19.678;2023-06-22T09:15:24;22.15;;;13.80;;
42978;SDS011;28616;44.746;19.678;2023-06-22T09:17:50;17.17;;;14.10;;
42978;SDS011;28616;44.746;19.678;2023-06-22T09:20:19;24.02;;;13.82;;
42978;SDS011;28616;44.746;19.678;2023-06-22T09:22:45;25.02;;;14.45;;
42978;SDS011;28616;44.746;19.678;2023-06-22T09:25:11;16.10;;;13.80;;
42978;SDS011;28616;44.746;19.678;2023-06-22T09:27:37;20.33;;;13.65;;
42978;SDS011;28616;44.746;19.678;2023-06-22T09:30:03;21.15;;;14.38;;
42978;SDS011;28616;44.746;19.678;2023-06-22T09:32:30;18.70;;;13.68;;
42978;SDS011;28616;44.746;19.678;2023-06-22T09:34:56;16.73;;;13.15;;
42978;SDS011;28616;44.746;19.678;2023-06-22T09:37:22;23.17;;;13.82;;
42978;SDS011;28616;44.746;19.678;2023-06-22T09:39:48;17.98;;;13.25;;
42978;SDS011;28616;44.746;19.678;2023-06-22T09:42:52;16.30;;;14.35;;
42978;SDS011;28616;44.746;19.678;2023-06-22T09:45:18;23.95;;;20.40;;
42978;SDS011;28616;44.746;19.678;2023-06-22T09:47:44;31.13;;;25.42;;
42978;SDS011;28616;44.746;19.678;2023-06-22T09:50:11;30.88;;;23.70;;
42978;SDS011;28616;44.746;19.678;2023-06-22T09:54:22;27.73;;;22.33;;
42978;SDS011;28616;44.746;19.678;2023-06-22T09:56:48;27.08;;;23.73;;
42978;SDS011;28616;44.746;19.678;2023-06-22T09:59:14;31.05;;;20.80;;
42978;SDS011;28616;44.746;19.678;2023-06-22T10:01:41;16.98;;;15.18;;
42978;SDS011;28616;44.746;19.678;2023-06-22T10:04:07;22.25;;;14.88;;
42978;SDS011;28616;44.746;19.678;2023-06-22T10:06:33;19.55;;;14.98;;
42978;SDS011;28616;44.746;19.678;2023-06-22T10:08:59;17.30;;;14.23;;
42978;SDS011;28616;44.746;19.678;2023-06-22T10:11:25;16.88;;;14.85;;
42978;SDS011;28616;44.746;19.678;2023-06-22T10:13:55;17.58;;;13.75;;
42978;SDS011;28616;44.746;19.678;2023-06-22T10:16:23;14.90;;;13.00;;
42978;SDS011;28616;44.746;19.678;2023-06-22T10:18:51;14.57;;;12.00;;
42978;SDS011;28616;44.746;19.678;2023-06-22T10:21:17;19.52;;;11.60;;
42978;SDS011;28616;44.746;19.678;2023-06-22T10:23:44;16.55;;;13.73;;
42978;SDS011;28616;44.746;19.678;2023-06-22T10:26:10;17.02;;;14.00;;
42978;SDS011;28616;44.746;19.678;2023-06-22T10:28:36;18.38;;;14.10;;
42978;SDS011;28616;44.746;19.678;2023-06-22T10:31:02;17.02;;;12.98;;
42978;SDS011;28616;44.746;19.678;2023-06-22T19:29:52;15.95;;;9.52;;
42978;SDS011;28616;44.746;19.678;2023-06-22T19:32:19;17.75;;;10.25;;
42978;SDS011;28616;44.746;19.678;2023-06-22T19:34:45;20.00;;;9.93;;
42978;SDS011;28616;44.746;19.678;2023-06-22T19:37:16;15.43;;;9.85;;
42978;SDS011;28616;44.746;19.678;2023-06-22T19:39:42;19.25;;;9.23;;
42978;SDS011;28616;44.746;19.678;2023-06-22T19:42:09;23.90;;;11.02;;
42978;SDS011;28616;44.746;19.678;2023-06-22T19:44:35;14.85;;;9.93;;
42978;SDS011;28616;44.746;19.678;2023-06-22T19:47:01;20.60;;;10.30;;
42978;SDS011;28616;44.746;19.678;2023-06-22T19:49:27;22.23;;;10.75;;
42978;SDS011;28616;44.746;19.678;2023-06-22T19:51:53;25.55;;;11.25;;
42978;SDS011;28616;44.746;19.678;2023-06-22T19:54:19;15.07;;;10.00;;
42978;SDS011;28616;44.746;19.678;2023-06-22T19:56:47;24.00;;;10.77;;
42978;SDS011;28616;44.746;19.678;2023-06-22T19:59:13;25.10;;;11.60;;
42978;SDS011;28616;44.746;19.678;2023-06-22T20:01:45;17.73;;;10.80;;
42978;SDS011;28616;44.746;19.678;2023-06-22T20:04:12;17.95;;;10.77;;
42978;SDS011;28616;44.746;19.678;2023-06-22T20:06:38;26.38;;;10.93;;
42978;SDS011;28616;44.746;19.678;2023-06-22T20:09:05;16.88;;;10.80;;
42978;SDS011;28616;44.746;19.678;2023-06-22T20:11:33;19.10;;;10.85;;
42978;SDS011;28616;44.746;19.678;2023-06-22T20:13:59;18.83;;;10.95;;
42978;SDS011;28616;44.746;19.678;2023-06-22T20:16:26;20.55;;;11.30;;
42978;SDS011;28616;44.746;19.678;2023-06-22T20:19:06;19.50;;;11.07;;
42978;SDS011;28616;44.746;19.678;2023-06-22T20:21:32;17.52;;;11.05;;
42978;SDS011;28616;44.746;19.678;2023-06-22T20:24:02;19.55;;;10.82;;
42978;SDS011;28616;44.746;19.678;2023-06-22T20:26:28;17.70;;;10.15;;
42978;SDS011;28616;44.746;19.678;2023-06-22T20:28:54;16.80;;;10.00;;
42978;SDS011;28616;44.746;19.678;2023-06-22T20:31:21;19.08;;;10.60;;
42978;SDS011;28616;44.746;19.678;2023-06-22T20:34:01;20.13;;;12.13;;
42978;SDS011;28616;44.746;19.678;2023-06-22T20:36:28;18.60;;;10.50;;
42978;SDS011;28616;44.746;19.678;2023-06-22T20:38:57;16.75;;;9.73;;
42978;SDS011;28616;44.746;19.678;2023-06-22T20:41:23;17.45;;;10.40;;
42978;SDS011;28616;44.746;19.678;2023-06-22T20:43:53;19.48;;;10.10;;
42978;SDS011;28616;44.746;19.678;2023-06-22T20:46:19;20.77;;;10.95;;
42978;SDS011;28616;44.746;19.678;2023-06-22T20:48:45;18.10;;;10.23;;
42978;SDS011;28616;44.746;19.678;2023-06-22T20:51:11;18.40;;;10.48;;
42978;SDS011;28616;44.746;19.678;2023-06-22T20:53:37;20.17;;;10.27;;
42978;SDS011;28616;44.746;19.678;2023-06-22T20:56:04;20.73;;;10.00;;
42978;SDS011;28616;44.746;19.678;2023-06-22T20:58:30;20.85;;;9.55;;
42978;SDS011;28616;44.746;19.678;2023-06-22T21:00:56;19.58;;;9.93;;
42978;SDS011;28616;44.746;19.678;2023-06-22T21:03:25;17.58;;;10.27;;
42978;SDS011;28616;44.746;19.678;2023-06-22T21:05:51;20.60;;;10.75;;
42978;SDS011;28616;44.746;19.678;2023-06-22T21:08:17;16.63;;;8.98;;
42978;SDS011;28616;44.746;19.678;2023-06-22T21:10:43;16.13;;;9.65;;
42978;SDS011;28616;44.746;19.678;2023-06-22T21:13:10;20.27;;;9.13;;
42978;SDS011;28616;44.746;19.678;2023-06-22T21:15:36;18.20;;;9.32;;
42978;SDS011;28616;44.746;19.678;2023-06-22T21:18:02;13.82;;;9.13;;
42978;SDS011;28616;44.746;19.678;2023-06-22T21:20:28;14.15;;;9.02;;
42978;SDS011;28616;44.746;19.678;2023-06-22T21:22:54;16.75;;;8.43;;
42978;SDS011;28616;44.746;19.678;2023-06-22T21:25:20;15.40;;;8.85;;
42978;SDS011;28616;44.746;19.678;2023-06-22T21:27:47;17.33;;;9.02;;
42978;SDS011;28616;44.746;19.678;2023-06-22T21:30:13;17.20;;;8.10;;
42978;SDS011;28616;44.746;19.678;2023-06-22T21:32:40;15.77;;;7.82;;
42978;SDS011;28616;44.746;19.678;2023-06-22T21:35:06;20.13;;;8.38;;
42978;SDS011;28616;44.746;19.678;2023-06-22T21:37:37;19.58;;;8.82;;
42978;SDS011;28616;44.746;19.678;2023-06-22T21:40:03;18.10;;;9.40;;
42978;SDS011;28616;44.746;19.678;2023-06-22T21:42:29;15.98;;;8.25;;
42978;SDS011;28616;44.746;19.678;2023-06-22T21:44:55;18.00;;;9.23;;
42978;SDS011;28616;44.746;19.678;2023-06-22T21:47:22;16.98;;;8.55;;
42978;SDS011;28616;44.746;19.678;2023-06-22T21:49:49;19.80;;;8.75;;
42978;SDS011;28616;44.746;19.678;2023-06-22T21:52:16;19.75;;;8.60;;
42978;SDS011;28616;44.746;19.678;2023-06-22T21:54:42;20.65;;;8.27;;
42978;SDS011;28616;44.746;19.678;2023-06-22T21:57:08;20.95;;;8.18;;
42978;SDS011;28616;44.746;19.678;2023-06-22T21:59:35;13.48;;;8.35;;
42978;SDS011;28616;44.746;19.678;2023-06-22T22:02:01;13.65;;;8.18;;
42978;SDS011;28616;44.746;19.678;2023-06-22T22:04:28;16.67;;;7.95;;
42978;SDS011;28616;44.746;19.678;2023-06-22T22:06:54;16.52;;;8.15;;
42978;SDS011;28616;44.746;19.678;2023-06-22T22:09:22;18.02;;;9.20;;
42978;SDS011;28616;44.746;19.678;2023-06-22T22:11:49;18.00;;;9.10;;
42978;SDS011;28616;44.746;19.678;2023-06-22T22:14:15;20.30;;;8.68;;
42978;SDS011;28616;44.746;19.678;2023-06-22T22:16:43;18.35;;;9.25;;
42978;SDS011;28616;44.746;19.678;2023-06-22T22:19:09;21.02;;;9.75;;
42978;SDS011;28616;44.746;19.678;2023-06-22T22:21:36;16.45;;;9.57;;
42978;SDS011;28616;44.746;19.678;2023-06-22T22:24:02;18.55;;;8.95;;
42978;SDS011;28616;44.746;19.678;2023-06-22T22:26:28;14.25;;;8.00;;
42978;SDS011;28616;44.746;19.678;2023-06-22T22:28:55;21.60;;;10.13;;
42978;SDS011;28616;44.746;19.678;2023-06-22T22:31:22;18.88;;;9.30;;
42978;SDS011;28616;44.746;19.678;2023-06-22T22:33:48;20.15;;;9.48;;
42978;SDS011;28616;44.746;19.678;2023-06-22T22:36:14;24.42;;;10.13;;
42978;SDS011;28616;44.746;19.678;2023-06-22T22:38:40;19.17;;;8.98;;
42978;SDS011;28616;44.746;19.678;2023-06-22T22:41:08;15.20;;;8.45;;
42978;SDS011;28616;44.746;19.678;2023-06-22T22:43:34;17.67;;;9.75;;
42978;SDS011;28616;44.746;19.678;2023-06-22T22:46:00;18.85;;;9.75;;
42978;SDS011;28616;44.746;19.678;2023-06-22T22:48:26;23.67;;;9.38;;
42978;SDS011;28616;44.746;19.678;2023-06-22T22:50:57;15.15;;;8.52;;
42978;SDS011;28616;44.746;19.678;2023-06-22T22:53:23;25.30;;;10.13;;
42978;SDS011;28616;44.746;19.678;2023-06-22T22:55:49;16.23;;;9.85;;
42978;SDS011;28616;44.746;19.678;2023-06-22T22:58:15;15.75;;;10.13;;
42978;SDS011;28616;44.746;19.678;2023-06-22T23:00:41;24.70;;;9.77;;
42978;SDS011;28616;44.746;19.678;2023-06-22T23:03:08;18.92;;;9.85;;
42978;SDS011;28616;44.746;19.678;2023-06-22T23:05:34;23.40;;;9.35;;
42978;SDS011;28616;44.746;19.678;2023-06-22T23:08:01;24.50;;;9.88;;
42978;SDS011;28616;44.746;19.678;2023-06-22T23:10:28;22.02;;;10.07;;
42978;SDS011;28616;44.746;19.678;2023-06-22T23:12:55;16.38;;;9.60;;
42978;SDS011;28616;44.746;19.678;2023-06-22T23:15:22;19.30;;;9.85;;
42978;SDS011;28616;44.746;19.678;2023-06-22T23:17:49;19.70;;;9.90;;
42978;SDS011;28616;44.746;19.678;2023-06-22T23:20:16;15.30;;;9.57;;
42978;SDS011;28616;44.746;19.678;2023-06-22T23:22:44;24.60;;;11.23;;
42978;SDS011;28616;44.746;19.678;2023-06-22T23:25:10;23.23;;;9.95;;
42978;SDS011;28616;44.746;19.678;2023-06-22T23:27:37;22.13;;;9.65;;
42978;SDS011;28616;44.746;19.678;2023-06-22T23:30:04;19.45;;;10.05;;
42978;SDS011;28616;44.746;19.678;2023-06-22T23:32:34;22.80;;;10.73;;
42978;SDS011;28616;44.746;19.678;2023-06-22T23:35:00;18.52;;;10.15;;
42978;SDS011;28616;44.746;19.678;2023-06-22T23:37:27;28.58;;;10.35;;